createdAt,value
2019-06-01T00:43:22.720Z,18.95
2019-06-01T00:49:29.045Z,14.53
2019-06-01T01:22:38.578Z,15.03
2019-06-01T04:08:27.898Z,39.23
2019-06-01T04:11:01.622Z,40.78
2019-06-01T04:13:35.567Z,48.45
2019-06-01T04:16:09.993Z,38.38
2019-06-01T04:18:44.113Z,29.57
2019-06-01T04:21:17.665Z,31.87
2019-06-01T04:23:51.133Z,35.05
2019-06-01T04:26:24.633Z,28.00
2019-06-01T04:28:58.176Z,29.35
2019-06-01T04:31:31.690Z,30.80
2019-06-01T04:34:05.303Z,30.20
2019-06-01T04:36:38.988Z,38.05
2019-06-01T04:39:13.764Z,47.33
2019-06-01T04:41:48.966Z,53.73
2019-06-01T04:57:13.038Z,28.25
2019-06-01T05:06:02.424Z,20.25
2019-06-01T05:08:45.552Z,20.92
2019-06-01T05:11:22.005Z,22.85
2019-06-01T05:14:23.954Z,26.52
2019-06-01T05:17:01.222Z,22.85
2019-06-01T05:19:35.785Z,26.35
2019-06-01T05:35:22.008Z,28.32
2019-06-01T05:37:55.336Z,29.42
2019-06-01T05:40:28.924Z,25.10
2019-06-01T05:43:02.358Z,28.75
2019-06-01T05:45:35.928Z,26.68
2019-06-01T05:48:12.046Z,23.75
2019-06-01T05:50:44.614Z,25.85
2019-06-01T05:53:19.863Z,27.02
2019-06-01T05:55:53.653Z,26.15
2019-06-01T05:58:29.279Z,24.75
2019-06-01T06:01:02.641Z,26.80
2019-06-01T06:03:40.226Z,22.37
2019-06-01T06:06:12.214Z,25.37
2019-06-01T06:08:46.097Z,20.48
2019-06-01T06:11:20.951Z,20.00
2019-06-01T06:13:55.066Z,20.25
2019-06-01T06:16:28.979Z,22.32
2019-06-01T06:19:02.864Z,17.75
2019-06-01T06:21:36.473Z,20.43
2019-06-01T06:24:10.163Z,21.20
2019-06-01T06:26:43.930Z,18.65
2019-06-01T06:29:18.948Z,18.20
2019-06-01T06:31:52.759Z,18.07
2019-06-01T06:34:26.513Z,15.60
2019-06-01T06:37:00.328Z,18.10
2019-06-01T06:39:40.640Z,15.43
2019-06-01T06:42:18.608Z,14.75
2019-06-01T06:44:58.178Z,17.48
2019-06-01T06:47:32.705Z,15.20
2019-06-01T06:50:06.900Z,11.75
2019-06-01T06:52:40.606Z,14.53
2019-06-01T06:55:15.649Z,12.35
2019-06-01T06:57:50.029Z,12.35
2019-06-01T07:11:59.504Z,14.23
2019-06-01T07:14:21.550Z,7.85
2019-06-01T07:17:31.806Z,9.43
2019-06-01T07:20:07.156Z,9.73
2019-06-01T07:22:46.073Z,7.72
2019-06-01T07:25:22.649Z,8.53
2019-06-01T07:27:59.222Z,10.75
2019-06-01T07:30:49.603Z,8.45
2019-06-01T07:33:17.841Z,7.70
2019-06-01T07:35:56.679Z,9.55
2019-06-01T07:38:33.982Z,10.13
2019-06-01T07:41:10.655Z,9.18
2019-06-01T07:43:44.800Z,9.20
2019-06-01T07:46:18.483Z,14.40
2019-06-01T07:48:52.094Z,8.85
2019-06-01T07:51:27.382Z,11.90
2019-06-01T07:54:00.932Z,12.60
2019-06-01T07:56:34.465Z,11.43
2019-06-01T07:59:08.440Z,9.08
2019-06-01T08:01:42.005Z,12.47
2019-06-01T08:04:15.875Z,9.58
2019-06-01T08:06:50.302Z,7.65
2019-06-01T08:09:24.591Z,10.32
2019-06-01T08:12:01.507Z,7.72
2019-06-01T08:14:35.063Z,15.58
2019-06-01T08:17:08.666Z,5.60
2019-06-01T08:19:42.118Z,6.90
2019-06-01T08:22:15.489Z,6.92
2019-06-01T08:24:48.774Z,8.30
2019-06-01T08:27:22.529Z,9.20
2019-06-01T08:30:03.570Z,5.85
2019-06-01T08:32:38.969Z,11.80
2019-06-01T08:35:13.767Z,14.68
2019-06-01T08:38:23.383Z,7.55
2019-06-01T08:44:10.018Z,6.17
2019-06-01T08:46:43.675Z,7.30
2019-06-01T09:05:53.553Z,7.72
2019-06-01T09:08:27.186Z,9.78
2019-06-01T09:11:00.695Z,5.67
2019-06-01T09:13:35.522Z,6.28
2019-06-01T09:16:09.359Z,7.10
2019-06-01T09:18:42.885Z,5.75
2019-06-01T09:21:18.289Z,8.33
2019-06-01T09:23:52.282Z,13.95
2019-06-01T09:26:26.300Z,8.18
2019-06-01T09:29:00.381Z,14.03
2019-06-01T09:31:34.394Z,7.50
2019-06-01T09:34:08.028Z,10.85
2019-06-01T09:36:41.621Z,8.25
2019-06-01T09:39:15.193Z,6.92
2019-06-01T09:41:49.780Z,6.03
2019-06-01T09:44:23.925Z,6.35
2019-06-01T09:46:59.522Z,8.28
2019-06-01T09:49:34.110Z,6.15
2019-06-01T09:52:12.038Z,6.53
2019-06-01T09:54:43.494Z,6.05
2019-06-01T09:57:17.079Z,7.03
2019-06-01T10:04:39.351Z,5.37
2019-06-01T10:07:13.196Z,5.05
2019-06-01T10:09:46.753Z,8.63
2019-06-01T10:12:20.721Z,8.25
2019-06-01T10:14:55.282Z,6.78
2019-06-01T10:17:30.451Z,8.95
2019-06-01T10:20:05.629Z,8.25
2019-06-01T10:22:39.545Z,8.10
2019-06-01T10:25:13.374Z,8.78
2019-06-01T10:27:46.905Z,7.05
2019-06-01T10:30:20.467Z,9.08
2019-06-01T10:32:54.367Z,6.75
2019-06-01T10:35:27.577Z,6.05
2019-06-01T10:38:00.797Z,19.87
2019-06-01T10:40:35.352Z,10.03
2019-06-01T10:43:09.201Z,11.03
2019-06-01T10:45:42.363Z,7.87
2019-06-01T10:48:16.616Z,6.62
2019-06-01T10:50:50.101Z,6.62
2019-06-01T10:53:23.337Z,6.40
2019-06-01T10:55:56.650Z,8.60
2019-06-01T10:58:29.884Z,6.33
2019-06-01T11:01:03.361Z,9.55
2019-06-01T11:03:36.809Z,8.55
2019-06-01T11:06:10.296Z,8.10
2019-06-01T11:08:43.955Z,8.43
2019-06-01T11:11:18.531Z,13.28
2019-06-01T11:13:59.126Z,6.90
2019-06-01T11:16:41.027Z,8.25
2019-06-01T11:19:17.926Z,9.33
2019-06-01T11:21:54.449Z,8.33
2019-06-01T11:24:35.824Z,9.75
2019-06-01T11:27:10.636Z,7.20
2019-06-01T11:29:51.277Z,8.45
2019-06-01T11:32:19.535Z,6.15
2019-06-01T11:34:53.188Z,7.15
2019-06-01T11:37:26.324Z,8.58
2019-06-01T11:39:59.606Z,9.18
2019-06-01T11:42:39.221Z,6.67
2019-06-01T11:45:13.035Z,7.90
2019-06-01T11:47:46.945Z,8.45
2019-06-01T11:50:20.368Z,8.73
2019-06-01T11:52:53.670Z,5.87
2019-06-01T11:55:27.036Z,6.62
2019-06-01T11:58:00.388Z,6.80
2019-06-01T12:00:33.636Z,6.37
2019-06-01T12:03:06.964Z,8.38
2019-06-01T12:05:40.173Z,7.45
2019-06-01T12:08:13.392Z,7.80
2019-06-01T12:10:51.064Z,7.65
2019-06-01T12:13:24.322Z,9.50
2019-06-01T12:15:57.510Z,8.58
2019-06-01T12:18:30.712Z,10.05
2019-06-01T12:21:03.959Z,8.05
2019-06-01T12:23:37.407Z,7.33
2019-06-01T12:26:10.572Z,8.70
2019-06-01T12:28:44.102Z,11.08
2019-06-01T12:31:18.263Z,12.03
2019-06-01T12:33:53.167Z,12.55
2019-06-01T12:36:26.601Z,9.53
2019-06-01T12:38:59.898Z,7.12
2019-06-01T12:41:33.374Z,7.33
2019-06-01T12:44:14.256Z,6.50
2019-06-01T12:46:48.997Z,4.37
2019-06-01T12:49:22.635Z,6.35
2019-06-01T12:51:57.130Z,7.65
2019-06-01T12:54:31.590Z,9.48
2019-06-01T12:57:05.811Z,6.90
2019-06-01T12:59:41.055Z,6.72
2019-06-01T13:02:15.553Z,6.37
2019-06-01T13:04:49.206Z,5.60
2019-06-01T13:07:22.698Z,4.72
2019-06-01T13:09:56.197Z,4.87
2019-06-01T13:12:29.396Z,5.15
2019-06-01T13:15:02.527Z,5.97
2019-06-01T13:17:36.823Z,4.80
2019-06-01T13:20:10.438Z,5.25
2019-06-01T13:22:43.623Z,4.05
2019-06-01T13:25:17.063Z,4.97
2019-06-01T13:27:50.736Z,5.45
2019-06-01T13:30:23.864Z,4.12
2019-06-01T13:32:57.037Z,4.75
2019-06-01T13:35:30.103Z,5.05
2019-06-01T13:38:11.533Z,4.50
2019-06-01T13:40:37.964Z,4.85
2019-06-01T13:43:10.996Z,7.60
2019-06-01T13:45:45.226Z,7.08
2019-06-01T13:48:18.556Z,6.60
2019-06-01T13:50:52.038Z,6.92
2019-06-01T13:53:25.215Z,5.45
2019-06-01T13:55:58.237Z,6.10
2019-06-01T13:58:31.420Z,4.47
2019-06-01T14:01:04.578Z,6.83
2019-06-01T14:03:38.766Z,6.22
2019-06-01T14:06:11.881Z,4.92
2019-06-01T14:08:45.067Z,5.05
2019-06-01T14:11:18.110Z,8.13
2019-06-01T14:13:52.064Z,8.28
2019-06-01T14:16:25.386Z,5.28
2019-06-01T14:18:58.471Z,7.10
2019-06-01T14:21:31.607Z,4.62
2019-06-01T14:24:04.712Z,5.08
2019-06-01T14:26:37.781Z,6.05
2019-06-01T14:29:10.926Z,4.70
2019-06-01T14:31:44.721Z,4.20
2019-06-01T14:34:17.838Z,4.87
2019-06-01T14:36:50.950Z,4.17
2019-06-01T14:39:24.330Z,4.78
2019-06-01T14:41:57.715Z,7.53
2019-06-01T14:44:30.925Z,5.37
2019-06-01T14:47:06.156Z,7.30
2019-06-01T14:49:38.841Z,3.92
2019-06-01T14:52:11.941Z,3.47
2019-06-01T14:54:45.055Z,3.55
2019-06-01T14:57:18.152Z,6.08
2019-06-01T14:59:51.955Z,4.67
2019-06-01T15:02:25.259Z,2.42
2019-06-01T15:04:58.700Z,5.45
2019-06-01T15:07:31.873Z,3.75
2019-06-01T15:10:06.171Z,4.00
2019-06-01T15:12:39.433Z,5.65
2019-06-01T15:15:12.717Z,4.87
2019-06-01T15:17:45.838Z,3.87
2019-06-01T15:20:19.145Z,6.67
2019-06-01T15:22:52.677Z,4.28
2019-06-01T15:25:26.969Z,3.72
2019-06-01T15:28:00.067Z,2.77
2019-06-01T15:30:33.251Z,5.53
2019-06-01T15:33:06.483Z,4.87
2019-06-01T15:35:39.843Z,2.85
2019-06-01T15:38:12.898Z,3.27
2019-06-01T15:40:46.010Z,3.98
2019-06-01T15:43:19.711Z,3.45
2019-06-01T15:45:55.277Z,7.60
2019-06-01T15:48:28.533Z,4.22
2019-06-01T15:51:07.003Z,3.92
2019-06-01T15:53:36.419Z,6.45
2019-06-01T15:56:09.521Z,4.97
2019-06-01T15:58:52.483Z,4.03
2019-06-01T16:01:17.447Z,2.58
2019-06-01T16:03:50.731Z,2.50
2019-06-01T16:06:24.037Z,3.37
2019-06-01T16:08:57.349Z,3.95
2019-06-01T16:11:30.427Z,3.27
2019-06-01T16:14:03.982Z,3.83
2019-06-01T16:16:37.291Z,4.45
2019-06-01T16:19:10.434Z,6.70
2019-06-01T16:21:43.609Z,5.83
2019-06-01T16:24:16.725Z,4.87
2019-06-01T16:26:49.839Z,2.92
2019-06-01T16:29:22.948Z,3.85
2019-06-01T16:31:56.643Z,6.75
2019-06-01T16:34:30.963Z,6.08
2019-06-01T16:37:05.232Z,4.75
2019-06-01T16:39:38.550Z,4.62
2019-06-01T16:42:11.657Z,6.55
2019-06-01T16:44:45.759Z,4.30
2019-06-01T16:47:18.808Z,5.90
2019-06-01T16:49:51.918Z,6.47
2019-06-01T16:52:25.352Z,6.58
2019-06-01T16:54:58.549Z,5.87
2019-06-01T16:57:31.584Z,6.97
2019-06-01T17:00:04.981Z,8.08
2019-06-01T17:02:38.377Z,8.43
2019-06-01T17:05:14.310Z,11.15
2019-06-01T17:07:47.406Z,9.35
2019-06-01T17:10:26.147Z,8.58
2019-06-01T17:12:56.830Z,5.67
2019-06-01T17:15:30.170Z,7.87
2019-06-01T17:18:06.569Z,6.62
2019-06-01T17:20:48.775Z,3.83
2019-06-01T17:23:27.851Z,7.17
2019-06-01T17:25:58.276Z,10.18
2019-06-01T17:28:31.593Z,6.97
2019-06-01T17:31:06.883Z,8.98
2019-06-01T17:33:40.674Z,7.65
2019-06-01T17:36:13.855Z,3.70
2019-06-01T17:38:46.986Z,6.53
2019-06-01T17:41:20.030Z,7.97
2019-06-01T17:43:53.199Z,6.55
2019-06-01T17:46:26.388Z,15.38
2019-06-01T17:49:00.004Z,11.68
2019-06-01T17:51:33.170Z,8.15
2019-06-01T17:54:07.072Z,12.13
2019-06-01T17:56:41.093Z,10.50
2019-06-01T17:59:14.249Z,8.98
2019-06-01T18:01:47.471Z,10.85
2019-06-01T18:04:20.682Z,13.48
2019-06-01T18:06:54.850Z,12.07
2019-06-01T18:09:27.895Z,8.13
2019-06-01T18:12:01.955Z,9.78
2019-06-01T18:14:35.464Z,6.83
2019-06-01T18:17:08.589Z,4.58
2019-06-01T18:19:41.701Z,6.35
2019-06-01T18:22:16.644Z,6.22
2019-06-01T18:24:53.200Z,7.03
2019-06-01T18:27:30.477Z,7.28
2019-06-01T18:30:08.728Z,5.62
2019-06-01T18:32:45.704Z,8.58
2019-06-01T18:35:22.854Z,9.08
2019-06-01T18:38:00.051Z,9.18
2019-06-01T18:40:37.844Z,12.47
2019-06-01T18:43:19.310Z,16.82
2019-06-01T18:45:56.285Z,12.05
2019-06-01T18:48:31.843Z,8.95
2019-06-01T18:51:08.359Z,9.00
2019-06-01T18:53:44.774Z,10.72
2019-06-01T18:56:21.322Z,12.23
2019-06-01T18:58:54.872Z,9.35
2019-06-01T19:01:27.975Z,8.43
2019-06-01T19:04:00.999Z,8.38
2019-06-01T19:06:34.234Z,6.17
2019-06-01T19:09:09.894Z,7.80
2019-06-01T19:11:43.074Z,7.78
2019-06-01T19:14:16.186Z,10.05
2019-06-01T19:16:49.297Z,12.68
2019-06-01T19:19:22.359Z,13.32
2019-06-01T19:21:55.396Z,13.48
2019-06-01T19:24:28.448Z,12.70
2019-06-01T19:27:01.634Z,14.38
2019-06-01T19:29:34.817Z,12.07
2019-06-01T19:32:08.796Z,10.75
2019-06-01T19:34:42.146Z,11.88
2019-06-01T19:37:15.328Z,11.03
2019-06-01T19:39:49.155Z,13.55
2019-06-01T19:42:22.373Z,15.65
2019-06-01T19:44:55.565Z,16.25
2019-06-01T19:47:29.972Z,15.18
2019-06-01T19:50:03.164Z,15.95
2019-06-01T19:52:36.361Z,17.77
2019-06-01T19:55:10.724Z,18.73
2019-06-01T19:58:33.957Z,16.82
2019-06-01T20:01:10.131Z,22.70
2019-06-01T20:03:43.382Z,22.40
2019-06-01T20:06:17.049Z,25.65
2019-06-01T20:08:50.264Z,17.45
2019-06-01T20:11:23.441Z,23.25
2019-06-01T20:13:56.558Z,19.57
2019-06-01T20:16:29.767Z,17.00
2019-06-01T20:19:03.023Z,17.77
2019-06-01T20:21:36.218Z,19.20
2019-06-01T20:24:09.376Z,18.90
2019-06-01T20:26:48.934Z,18.67
2019-06-01T20:29:17.664Z,20.35
2019-06-01T20:31:50.931Z,14.28
2019-06-01T20:34:24.108Z,14.98
2019-06-01T20:36:57.286Z,26.25
2019-06-01T20:39:30.464Z,18.45
2019-06-01T20:42:20.214Z,29.02
2019-06-01T20:44:38.369Z,24.60
2019-06-01T20:47:12.509Z,19.90
2019-06-01T20:49:45.800Z,28.23
2019-06-01T20:52:19.093Z,45.60
2019-06-01T20:54:52.328Z,39.13
2019-06-01T20:57:25.457Z,44.00
2019-06-01T20:59:58.781Z,51.35
2019-06-01T21:02:31.894Z,44.33
2019-06-01T21:05:06.724Z,38.85
2019-06-01T21:07:39.943Z,31.10
2019-06-01T21:10:14.087Z,25.57
2019-06-01T21:12:47.448Z,26.40
2019-06-01T21:15:21.347Z,24.65
2019-06-01T21:17:54.637Z,23.42
2019-06-01T21:20:30.055Z,24.20
2019-06-01T21:23:02.957Z,17.02
2019-06-01T21:25:36.076Z,16.10
2019-06-01T21:28:14.027Z,15.95
2019-06-01T21:30:44.213Z,18.55
2019-06-01T21:33:19.736Z,13.38
2019-06-01T21:35:53.057Z,15.78
2019-06-01T21:38:26.189Z,15.05
2019-06-01T21:40:59.360Z,16.80
2019-06-01T21:43:35.381Z,13.62
2019-06-01T21:46:07.279Z,12.53
2019-06-01T21:48:40.404Z,14.23
2019-06-01T21:51:13.530Z,13.48
2019-06-01T21:53:46.553Z,13.45
2019-06-01T21:56:20.780Z,14.95
2019-06-01T21:58:54.474Z,14.35
2019-06-01T22:01:27.666Z,13.53
2019-06-01T22:04:00.762Z,13.43
2019-06-01T22:06:33.955Z,68.00
2019-06-01T22:09:08.270Z,93.82
2019-06-01T22:11:41.472Z,138.45
2019-06-01T22:14:14.586Z,146.13
2019-06-01T22:16:47.780Z,206.20
2019-06-01T22:19:21.606Z,219.85
2019-06-01T22:21:54.743Z,249.40
2019-06-01T22:24:28.332Z,245.93
2019-06-01T22:27:01.494Z,272.42
2019-06-01T22:29:34.654Z,196.43
2019-06-01T22:32:07.774Z,126.00
2019-06-01T22:34:40.915Z,182.32
2019-06-01T22:37:13.985Z,222.58
2019-06-01T22:39:47.172Z,197.68
2019-06-01T22:42:20.313Z,191.75
2019-06-01T22:44:53.501Z,179.60
2019-06-01T22:47:26.742Z,162.55
2019-06-01T22:49:59.948Z,163.07
2019-06-01T22:52:33.086Z,113.28
2019-06-01T22:55:07.497Z,87.95
2019-06-01T22:57:43.117Z,90.77
2019-06-01T23:00:16.790Z,120.75
2019-06-01T23:02:50.093Z,116.53
2019-06-01T23:05:23.307Z,112.08
2019-06-01T23:07:56.640Z,59.00
2019-06-01T23:10:33.967Z,58.38
2019-06-01T23:13:04.717Z,55.98
2019-06-01T23:15:38.116Z,41.23
2019-06-01T23:18:11.562Z,31.80
2019-06-01T23:20:44.722Z,31.77
2019-06-01T23:23:17.904Z,32.70
2019-06-01T23:25:51.271Z,36.95
2019-06-01T23:28:24.398Z,39.98
2019-06-01T23:30:57.431Z,38.17
2019-06-01T23:33:30.992Z,39.35
2019-06-01T23:36:04.199Z,37.75
2019-06-01T23:38:37.257Z,40.78
2019-06-01T23:41:10.438Z,40.60
2019-06-01T23:43:43.619Z,39.67
2019-06-01T23:46:16.742Z,38.25
2019-06-01T23:48:50.066Z,40.70
2019-06-01T23:51:23.482Z,45.25
2019-06-01T23:53:56.681Z,44.83
2019-06-01T23:56:29.834Z,38.25
2019-06-01T23:59:02.940Z,36.53
